createdAt,value
2022-11-01T00:00:44.503Z,12.48
2022-11-01T00:05:46.491Z,12.45
2022-11-01T00:10:49.409Z,12.44
2022-11-01T00:15:51.396Z,12.39
2022-11-01T00:20:53.766Z,12.40
2022-11-01T00:26:00.533Z,12.29
2022-11-01T00:31:02.357Z,12.18
2022-11-01T00:36:04.237Z,12.18
2022-11-01T00:41:08.312Z,12.10
2022-11-01T00:46:10.571Z,12.01
2022-11-01T00:51:12.874Z,12.22
2022-11-01T00:56:16.462Z,12.24
2022-11-01T01:01:18.560Z,12.20
2022-11-01T01:06:20.738Z,12.20
2022-11-01T01:11:23.716Z,12.14
2022-11-01T01:16:25.723Z,12.01
2022-11-01T01:21:28.109Z,11.86
2022-11-01T01:26:31.680Z,11.64
2022-11-01T01:31:33.592Z,11.56
2022-11-01T01:36:35.433Z,11.56
2022-11-01T01:41:38.549Z,11.51
2022-11-01T01:46:40.187Z,11.52
2022-11-01T01:51:42.312Z,11.46
2022-11-01T01:56:45.835Z,11.43
2022-11-01T02:01:48.031Z,11.39
2022-11-01T02:06:50.284Z,11.58
2022-11-01T02:11:54.038Z,11.73
2022-11-01T02:17:05.584Z,11.65
2022-11-01T02:22:16.860Z,11.61
2022-11-01T02:27:28.981Z,11.61
2022-11-01T02:32:39.179Z,11.61
2022-11-01T02:37:48.747Z,11.60
2022-11-01T02:42:56.401Z,11.44
2022-11-01T02:48:01.720Z,11.38
2022-11-01T02:53:04.614Z,11.28
2022-11-01T02:58:15.347Z,11.07
2022-11-01T03:03:22.827Z,10.88
2022-11-01T03:08:28.410Z,10.69
2022-11-01T03:13:44.070Z,10.65
2022-11-01T03:18:56.508Z,10.59
2022-11-01T03:24:04.629Z,10.43
2022-11-01T03:29:10.287Z,10.34
2022-11-01T03:34:16.319Z,10.28
2022-11-01T03:39:22.894Z,10.24
2022-11-01T03:44:27.127Z,10.27
2022-11-01T03:49:30.570Z,10.45
2022-11-01T03:54:32.270Z,10.56
2022-11-01T03:59:34.290Z,10.54
2022-11-01T04:04:37.619Z,10.57
2022-11-01T04:09:39.575Z,10.63
2022-11-01T04:14:41.574Z,10.74
2022-11-01T04:19:44.771Z,10.75
2022-11-01T04:24:46.935Z,10.86
2022-11-01T04:29:50.382Z,10.97
2022-11-01T04:34:54.044Z,11.04
2022-11-01T04:39:56.095Z,11.00
2022-11-01T04:44:58.105Z,11.10
2022-11-01T04:50:01.932Z,11.11
2022-11-01T04:55:04.485Z,10.99
2022-11-01T05:00:08.049Z,11.13
2022-11-01T05:05:11.833Z,11.21
2022-11-01T05:10:13.880Z,11.11
2022-11-01T05:15:16.070Z,11.07
2022-11-01T05:20:19.167Z,11.03
2022-11-01T05:25:20.945Z,10.97
2022-11-01T05:30:23.193Z,11.02
2022-11-01T05:35:27.842Z,11.10
2022-11-01T05:40:30.538Z,11.12
2022-11-01T05:45:32.565Z,11.13
2022-11-01T05:50:36.065Z,11.15
2022-11-01T05:55:38.652Z,11.18
2022-11-01T06:00:40.945Z,11.18
2022-11-01T06:05:44.316Z,11.19
2022-11-01T06:10:46.486Z,11.21
2022-11-01T06:15:48.495Z,11.22
2022-11-01T06:20:52.230Z,11.18
2022-11-01T06:26:00.493Z,11.21
2022-11-01T06:36:12.309Z,11.25
2022-11-01T06:41:14.267Z,11.33
2022-11-01T06:46:16.126Z,11.32
2022-11-01T06:51:19.572Z,11.34
2022-11-01T06:56:21.529Z,11.40
2022-11-01T07:01:23.643Z,11.43
2022-11-01T07:06:27.231Z,11.44
2022-11-01T07:11:31.756Z,11.41
2022-11-01T07:16:34.162Z,11.53
2022-11-01T07:21:38.218Z,11.54
2022-11-01T07:26:40.237Z,11.60
2022-11-01T07:31:41.927Z,11.62
2022-11-01T07:36:45.569Z,11.62
2022-11-01T07:41:47.636Z,11.65
2022-11-01T07:46:49.672Z,11.90
2022-11-01T07:51:53.006Z,11.91
2022-11-01T07:56:55.118Z,12.01
2022-11-01T08:01:57.123Z,12.03
2022-11-01T08:07:00.795Z,12.13
2022-11-01T08:12:02.743Z,12.50
2022-11-01T08:17:04.687Z,12.56
2022-11-01T08:22:08.132Z,12.72
2022-11-01T08:27:09.732Z,12.91
2022-11-01T08:32:11.389Z,13.13
2022-11-01T08:37:15.287Z,13.08
2022-11-01T08:42:17.508Z,13.45
2022-11-01T08:47:19.203Z,13.55
2022-11-01T08:52:22.200Z,13.75
2022-11-01T08:57:24.516Z,13.90
2022-11-01T09:02:26.823Z,14.66
2022-11-01T09:07:30.031Z,14.76
2022-11-01T09:12:32.061Z,15.25
2022-11-01T09:17:33.992Z,15.80
2022-11-01T09:22:37.531Z,15.53
2022-11-01T09:27:39.743Z,15.35
2022-11-01T09:32:41.440Z,15.00
2022-11-01T09:37:44.828Z,14.73
2022-11-01T09:42:48.574Z,14.64
2022-11-01T09:47:53.988Z,14.66
2022-11-01T09:52:58.077Z,14.85
2022-11-01T09:58:07.318Z,14.73
2022-11-01T10:03:29.943Z,14.93
2022-11-01T10:08:45.718Z,15.09
2022-11-01T10:13:58.423Z,15.27
2022-11-01T10:19:04.420Z,15.31
2022-11-01T10:24:17.979Z,15.25
2022-11-01T10:29:25.121Z,15.46
2022-11-01T10:34:35.992Z,15.62
2022-11-01T10:39:54.932Z,15.76
2022-11-01T10:45:06.096Z,16.75
2022-11-01T10:50:16.889Z,18.22
2022-11-01T10:55:27.052Z,20.53
2022-11-01T11:00:31.044Z,21.55
2022-11-01T11:05:33.458Z,19.45
2022-11-01T11:10:37.245Z,17.98
2022-11-01T11:15:44.498Z,17.56
2022-11-01T11:20:51.141Z,17.22
2022-11-01T11:26:01.538Z,17.07
2022-11-01T11:31:14.436Z,17.06
2022-11-01T11:36:16.715Z,16.96
2022-11-01T11:41:31.832Z,16.89
2022-11-01T11:46:34.782Z,16.85
2022-11-01T11:51:38.346Z,16.84
2022-11-01T11:56:42.001Z,16.77
2022-11-01T12:01:46.224Z,16.73
2022-11-01T12:06:48.154Z,16.77
2022-11-01T12:11:51.777Z,16.77
2022-11-01T12:16:53.854Z,16.91
2022-11-01T12:21:59.352Z,17.11
2022-11-01T12:27:07.654Z,17.04
2022-11-01T12:32:15.326Z,17.07
2022-11-01T12:37:21.692Z,17.04
2022-11-01T12:42:29.461Z,16.86
2022-11-01T12:47:37.574Z,16.85
2022-11-01T12:52:45.051Z,16.95
2022-11-01T12:57:48.807Z,17.26
2022-11-01T13:03:05.345Z,17.15
2022-11-01T13:08:14.571Z,17.08
2022-11-01T13:13:26.079Z,17.27
2022-11-01T13:18:38.292Z,17.74
2022-11-01T13:23:45.771Z,18.01
2022-11-01T13:28:57.678Z,17.81
2022-11-01T13:34:11.783Z,17.79
2022-11-01T13:39:24.776Z,17.77
2022-11-01T13:44:34.425Z,17.57
2022-11-01T13:49:59.681Z,17.32
2022-11-01T13:55:15.069Z,17.23
2022-11-01T14:00:46.344Z,17.22
2022-11-01T14:11:46.980Z,17.32
2022-11-01T14:16:50.515Z,17.45
2022-11-01T14:21:53.526Z,17.51
2022-11-01T14:27:19.863Z,17.66
2022-11-01T14:32:25.939Z,17.82
2022-11-01T14:37:35.983Z,17.73
2022-11-01T14:42:44.024Z,17.57
2022-11-01T14:47:48.465Z,17.34
2022-11-01T14:52:57.469Z,17.05
2022-11-01T14:58:20.421Z,16.81
2022-11-01T15:03:24.029Z,16.58
2022-11-01T15:08:30.493Z,16.42
2022-11-01T15:13:36.085Z,16.16
2022-11-01T15:18:44.866Z,15.96
2022-11-01T15:23:49.086Z,15.78
2022-11-01T15:28:54.019Z,15.48
2022-11-01T15:33:59.878Z,15.20
2022-11-01T15:39:16.001Z,14.83
2022-11-01T15:44:23.764Z,14.46
2022-11-01T15:49:30.544Z,14.20
2022-11-01T15:54:40.081Z,13.96
2022-11-01T15:59:51.467Z,13.70
2022-11-01T16:04:56.400Z,13.46
2022-11-01T16:10:00.684Z,13.22
2022-11-01T16:15:06.624Z,12.98
2022-11-01T16:20:30.837Z,12.77
2022-11-01T16:25:35.763Z,12.62
2022-11-01T16:30:44.351Z,12.48
2022-11-01T16:35:49.492Z,12.30
2022-11-01T16:40:55.219Z,12.20
2022-11-01T16:45:58.635Z,12.10
2022-11-01T16:51:03.822Z,12.11
2022-11-01T16:56:35.092Z,12.08
2022-11-01T17:01:35.573Z,11.98
2022-11-01T17:06:39.522Z,11.91
2022-11-01T17:11:45.029Z,11.90
2022-11-01T17:16:51.042Z,11.84
2022-11-01T17:21:55.689Z,11.73
2022-11-01T17:27:01.434Z,11.56
2022-11-01T17:32:03.857Z,11.48
2022-11-01T17:37:07.312Z,11.43
2022-11-01T17:42:10.513Z,11.37
2022-11-01T17:47:14.313Z,11.43
2022-11-01T17:52:17.524Z,11.53
2022-11-01T17:57:20.094Z,11.56
2022-11-01T18:02:22.466Z,11.45
2022-11-01T18:07:35.950Z,11.36
2022-11-01T18:12:42.959Z,11.29
2022-11-01T18:17:55.916Z,11.19
2022-11-01T18:23:05.680Z,11.12
2022-11-01T18:28:12.650Z,10.90
2022-11-01T18:33:23.547Z,10.78
2022-11-01T18:38:32.835Z,10.62
2022-11-01T18:43:36.276Z,10.66
2022-11-01T18:48:38.577Z,10.48
2022-11-01T18:53:42.344Z,10.41
2022-11-01T18:58:44.645Z,10.23
2022-11-01T19:03:46.720Z,10.01
2022-11-01T19:08:52.795Z,9.77
2022-11-01T19:13:57.603Z,9.61
2022-11-01T19:19:00.239Z,9.52
2022-11-01T19:24:16.648Z,9.39
2022-11-01T19:29:21.825Z,9.49
2022-11-01T19:34:26.458Z,9.38
2022-11-01T19:39:32.991Z,9.24
2022-11-01T19:44:36.691Z,9.05
2022-11-01T19:49:42.998Z,9.01
2022-11-01T19:54:50.832Z,8.90
2022-11-01T19:59:53.946Z,8.83
2022-11-01T20:05:00.134Z,8.71
2022-11-01T20:10:06.539Z,8.53
2022-11-01T20:15:09.921Z,8.54
2022-11-01T20:20:13.256Z,8.43
2022-11-01T20:25:17.417Z,8.44
2022-11-01T20:30:20.083Z,8.26
2022-11-01T20:35:22.766Z,8.18
2022-11-01T20:40:27.296Z,8.14
2022-11-01T20:45:29.939Z,7.95
2022-11-01T20:50:32.148Z,7.87
2022-11-01T20:55:36.080Z,7.84
2022-11-01T21:00:38.722Z,7.79
2022-11-01T21:05:42.909Z,7.75
2022-11-01T21:10:46.445Z,7.73
2022-11-01T21:15:48.840Z,7.62
2022-11-01T21:20:50.972Z,7.55
2022-11-01T21:25:56.891Z,7.52
2022-11-01T21:31:15.357Z,7.43
2022-11-01T21:36:28.170Z,7.38
2022-11-01T21:41:40.221Z,7.33
2022-11-01T21:46:48.251Z,7.40
2022-11-01T21:51:51.994Z,7.34
2022-11-01T21:56:56.514Z,7.14
2022-11-01T22:01:59.999Z,7.07
2022-11-01T22:07:04.912Z,7.10
2022-11-01T22:12:08.498Z,7.08
2022-11-01T22:17:10.477Z,6.95
2022-11-01T22:22:12.616Z,6.92
2022-11-01T22:27:16.581Z,6.89
2022-11-01T22:32:18.648Z,6.86
2022-11-01T22:37:21.036Z,6.74
2022-11-01T22:42:25.567Z,6.74
2022-11-01T22:47:28.571Z,6.65
2022-11-01T22:52:32.093Z,6.57
2022-11-01T22:57:42.392Z,6.58
2022-11-01T23:02:44.456Z,6.51
2022-11-01T23:07:48.655Z,6.49
2022-11-01T23:12:58.268Z,6.47
2022-11-01T23:18:07.247Z,6.44
2022-11-01T23:23:15.572Z,6.38
2022-11-01T23:28:19.496Z,6.33
2022-11-01T23:33:23.002Z,6.30
2022-11-01T23:38:35.117Z,6.28
2022-11-01T23:43:40.536Z,6.15
2022-11-01T23:48:44.457Z,6.06
2022-11-01T23:53:49.274Z,5.98
2022-11-01T23:58:56.179Z,5.87
